sensor_id;sensor_type;location;lat;lon;timestamp;temperature;humidity
7232;DHT22;3657;49.630;11.018;2023-09-07T00:02:26;20.60;91.30
7232;DHT22;3657;49.630;11.018;2023-09-07T00:04:54;20.60;91.30
7232;DHT22;3657;49.630;11.018;2023-09-07T00:07:20;20.50;91.30
7232;DHT22;3657;49.630;11.018;2023-09-07T00:09:47;20.50;91.30
7232;DHT22;3657;49.630;11.018;2023-09-07T00:12:14;20.50;91.30
7232;DHT22;3657;49.630;11.018;2023-09-07T00:14:40;20.40;91.30
7232;DHT22;3657;49.630;11.018;2023-09-07T00:17:07;20.40;91.30
7232;DHT22;3657;49.630;11.018;2023-09-07T00:19:34;20.40;91.40
7232;DHT22;3657;49.630;11.018;2023-09-07T00:22:04;20.30;91.40
7232;DHT22;3657;49.630;11.018;2023-09-07T00:24:31;20.30;91.40
7232;DHT22;3657;49.630;11.018;2023-09-07T00:26:57;20.30;91.50
7232;DHT22;3657;49.630;11.018;2023-09-07T00:29:24;20.30;91.50
7232;DHT22;3657;49.630;11.018;2023-09-07T00:31:51;20.20;91.50
7232;DHT22;3657;49.630;11.018;2023-09-07T00:34:17;20.20;91.50
7232;DHT22;3657;49.630;11.018;2023-09-07T00:36:44;20.10;91.50
7232;DHT22;3657;49.630;11.018;2023-09-07T00:39:12;20.10;91.50
7232;DHT22;3657;49.630;11.018;2023-09-07T00:41:39;20.10;91.60
7232;DHT22;3657;49.630;11.018;2023-09-07T00:44:05;20.10;91.60
7232;DHT22;3657;49.630;11.018;2023-09-07T00:46:32;20.00;91.60
7232;DHT22;3657;49.630;11.018;2023-09-07T00:48:59;20.00;91.60
7232;DHT22;3657;49.630;11.018;2023-09-07T00:51:26;20.00;91.60
7232;DHT22;3657;49.630;11.018;2023-09-07T00:53:53;20.00;91.70
7232;DHT22;3657;49.630;11.018;2023-09-07T00:56:21;19.90;91.60
7232;DHT22;3657;49.630;11.018;2023-09-07T00:58:49;19.90;91.60
7232;DHT22;3657;49.630;11.018;2023-09-07T01:01:17;19.90;91.70
7232;DHT22;3657;49.630;11.018;2023-09-07T01:03:43;19.80;91.70
7232;DHT22;3657;49.630;11.018;2023-09-07T01:06:13;19.80;91.70
7232;DHT22;3657;49.630;11.018;2023-09-07T01:08:44;19.80;91.70
7232;DHT22;3657;49.630;11.018;2023-09-07T01:11:14;19.70;91.70
7232;DHT22;3657;49.630;11.018;2023-09-07T01:13:42;19.70;91.70
7232;DHT22;3657;49.630;11.018;2023-09-07T01:16:10;19.70;91.70
7232;DHT22;3657;49.630;11.018;2023-09-07T01:18:38;19.70;91.80
7232;DHT22;3657;49.630;11.018;2023-09-07T01:21:05;19.60;91.70
7232;DHT22;3657;49.630;11.018;2023-09-07T01:23:35;19.60;91.70
7232;DHT22;3657;49.630;11.018;2023-09-07T01:26:03;19.60;91.70
7232;DHT22;3657;49.630;11.018;2023-09-07T01:28:29;19.60;91.70
7232;DHT22;3657;49.630;11.018;2023-09-07T01:30:56;19.60;91.80
7232;DHT22;3657;49.630;11.018;2023-09-07T01:33:23;19.50;91.80
7232;DHT22;3657;49.630;11.018;2023-09-07T01:35:50;19.50;91.80
7232;DHT22;3657;49.630;11.018;2023-09-07T01:38:17;19.40;91.80
7232;DHT22;3657;49.630;11.018;2023-09-07T01:40:45;19.40;91.80
7232;DHT22;3657;49.630;11.018;2023-09-07T01:43:12;19.40;91.80
7232;DHT22;3657;49.630;11.018;2023-09-07T01:45:38;19.40;91.80
7232;DHT22;3657;49.630;11.018;2023-09-07T01:48:08;19.30;91.80
7232;DHT22;3657;49.630;11.018;2023-09-07T01:50:35;19.30;91.90
7232;DHT22;3657;49.630;11.018;2023-09-07T01:53:02;19.30;91.90
7232;DHT22;3657;49.630;11.018;2023-09-07T01:55:30;19.20;91.90
7232;DHT22;3657;49.630;11.018;2023-09-07T01:57:58;19.20;91.90
7232;DHT22;3657;49.630;11.018;2023-09-07T02:00:24;19.20;91.90
7232;DHT22;3657;49.630;11.018;2023-09-07T02:02:51;19.20;92.00
7232;DHT22;3657;49.630;11.018;2023-09-07T02:05:18;19.10;91.90
7232;DHT22;3657;49.630;11.018;2023-09-07T02:07:45;19.10;91.90
7232;DHT22;3657;49.630;11.018;2023-09-07T02:10:14;19.10;92.00
7232;DHT22;3657;49.630;11.018;2023-09-07T02:12:41;19.10;92.00
7232;DHT22;3657;49.630;11.018;2023-09-07T02:15:10;19.00;91.90
7232;DHT22;3657;49.630;11.018;2023-09-07T02:17:36;19.00;91.90
7232;DHT22;3657;49.630;11.018;2023-09-07T02:20:03;19.00;92.00
7232;DHT22;3657;49.630;11.018;2023-09-07T02:22:35;19.00;92.00
7232;DHT22;3657;49.630;11.018;2023-09-07T02:25:02;19.00;92.00
7232;DHT22;3657;49.630;11.018;2023-09-07T02:27:31;18.90;92.00
7232;DHT22;3657;49.630;11.018;2023-09-07T02:29:58;18.90;92.00
7232;DHT22;3657;49.630;11.018;2023-09-07T02:32:26;18.90;92.00
7232;DHT22;3657;49.630;11.018;2023-09-07T02:34:53;18.80;92.00
7232;DHT22;3657;49.630;11.018;2023-09-07T02:37:19;18.80;92.00
7232;DHT22;3657;49.630;11.018;2023-09-07T02:39:46;18.80;92.00
7232;DHT22;3657;49.630;11.018;2023-09-07T02:42:13;18.70;92.00
7232;DHT22;3657;49.630;11.018;2023-09-07T02:44:39;18.70;92.00
7232;DHT22;3657;49.630;11.018;2023-09-07T02:47:06;18.70;92.00
7232;DHT22;3657;49.630;11.018;2023-09-07T02:49:34;18.70;92.00
7232;DHT22;3657;49.630;11.018;2023-09-07T02:52:01;18.60;92.00
7232;DHT22;3657;49.630;11.018;2023-09-07T02:54:27;18.60;92.00
7232;DHT22;3657;49.630;11.018;2023-09-07T02:56:54;18.60;92.10
7232;DHT22;3657;49.630;11.018;2023-09-07T02:59:21;18.60;92.10
7232;DHT22;3657;49.630;11.018;2023-09-07T03:01:48;18.50;92.10
7232;DHT22;3657;49.630;11.018;2023-09-07T03:04:15;18.50;92.10
7232;DHT22;3657;49.630;11.018;2023-09-07T03:06:42;18.50;92.10
7232;DHT22;3657;49.630;11.018;2023-09-07T03:09:09;18.50;92.10
7232;DHT22;3657;49.630;11.018;2023-09-07T03:11:37;18.40;92.10
7232;DHT22;3657;49.630;11.018;2023-09-07T03:14:03;18.40;92.10
7232;DHT22;3657;49.630;11.018;2023-09-07T03:16:31;18.40;92.10
7232;DHT22;3657;49.630;11.018;2023-09-07T03:18:57;18.30;92.10
7232;DHT22;3657;49.630;11.018;2023-09-07T03:21:24;18.30;92.10
7232;DHT22;3657;49.630;11.018;2023-09-07T03:23:56;18.30;92.10
7232;DHT22;3657;49.630;11.018;2023-09-07T03:26:23;18.20;92.10
7232;DHT22;3657;49.630;11.018;2023-09-07T03:28:50;18.20;92.10
7232;DHT22;3657;49.630;11.018;2023-09-07T03:31:17;18.20;92.10
7232;DHT22;3657;49.630;11.018;2023-09-07T03:33:43;18.20;92.20
7232;DHT22;3657;49.630;11.018;2023-09-07T03:36:10;18.10;92.40
7232;DHT22;3657;49.630;11.018;2023-09-07T03:38:39;18.10;92.10
7232;DHT22;3657;49.630;11.018;2023-09-07T03:41:07;18.10;92.10
7232;DHT22;3657;49.630;11.018;2023-09-07T03:43:34;18.10;92.20
7232;DHT22;3657;49.630;11.018;2023-09-07T03:46:00;18.10;92.20
7232;DHT22;3657;49.630;11.018;2023-09-07T03:48:27;18.00;92.10
7232;DHT22;3657;49.630;11.018;2023-09-07T03:50:54;18.00;92.20
7232;DHT22;3657;49.630;11.018;2023-09-07T03:53:20;18.00;92.20
7232;DHT22;3657;49.630;11.018;2023-09-07T03:55:47;17.90;92.10
7232;DHT22;3657;49.630;11.018;2023-09-07T03:58:15;17.90;92.20
7232;DHT22;3657;49.630;11.018;2023-09-07T04:00:42;17.90;92.20
7232;DHT22;3657;49.630;11.018;2023-09-07T04:03:08;17.90;92.30
7232;DHT22;3657;49.630;11.018;2023-09-07T04:05:37;17.90;92.20
7232;DHT22;3657;49.630;11.018;2023-09-07T04:08:04;17.80;92.20
7232;DHT22;3657;49.630;11.018;2023-09-07T04:10:31;17.80;92.20
7232;DHT22;3657;49.630;11.018;2023-09-07T04:12:58;17.80;92.20
7232;DHT22;3657;49.630;11.018;2023-09-07T04:15:26;17.80;92.30
7232;DHT22;3657;49.630;11.018;2023-09-07T04:17:52;17.70;92.20
7232;DHT22;3657;49.630;11.018;2023-09-07T04:20:20;17.70;92.20
7232;DHT22;3657;49.630;11.018;2023-09-07T04:22:47;17.70;92.30
7232;DHT22;3657;49.630;11.018;2023-09-07T04:25:14;17.70;92.30
7232;DHT22;3657;49.630;11.018;2023-09-07T04:27:41;17.60;92.30
7232;DHT22;3657;49.630;11.018;2023-09-07T04:30:08;17.60;92.20
7232;DHT22;3657;49.630;11.018;2023-09-07T04:32:36;17.60;92.30
7232;DHT22;3657;49.630;11.018;2023-09-07T04:35:04;17.60;92.30
7232;DHT22;3657;49.630;11.018;2023-09-07T04:37:31;17.50;92.30
7232;DHT22;3657;49.630;11.018;2023-09-07T04:39:58;17.50;92.30
7232;DHT22;3657;49.630;11.018;2023-09-07T04:42:25;17.50;92.40
7232;DHT22;3657;49.630;11.018;2023-09-07T04:44:51;17.40;92.30
7232;DHT22;3657;49.630;11.018;2023-09-07T04:47:18;17.50;92.40
7232;DHT22;3657;49.630;11.018;2023-09-07T04:49:50;17.40;92.30
7232;DHT22;3657;49.630;11.018;2023-09-07T04:52:16;17.40;92.40
7232;DHT22;3657;49.630;11.018;2023-09-07T04:54:43;17.30;92.30
7232;DHT22;3657;49.630;11.018;2023-09-07T04:57:10;17.40;92.40
7232;DHT22;3657;49.630;11.018;2023-09-07T04:59:37;17.30;92.30
7232;DHT22;3657;49.630;11.018;2023-09-07T05:02:04;17.30;92.30
7232;DHT22;3657;49.630;11.018;2023-09-07T05:04:30;17.30;92.40
7232;DHT22;3657;49.630;11.018;2023-09-07T05:06:58;17.30;92.40
7232;DHT22;3657;49.630;11.018;2023-09-07T05:09:25;17.30;92.30
7232;DHT22;3657;49.630;11.018;2023-09-07T05:11:54;17.30;92.30
7232;DHT22;3657;49.630;11.018;2023-09-07T05:14:21;17.30;92.40
7232;DHT22;3657;49.630;11.018;2023-09-07T05:16:48;17.20;92.40
7232;DHT22;3657;49.630;11.018;2023-09-07T05:19:14;17.20;92.40
7232;DHT22;3657;49.630;11.018;2023-09-07T05:21:41;17.20;92.30
7232;DHT22;3657;49.630;11.018;2023-09-07T05:24:09;17.30;92.40
7232;DHT22;3657;49.630;11.018;2023-09-07T05:26:36;17.20;92.40
7232;DHT22;3657;49.630;11.018;2023-09-07T05:29:03;17.30;92.40
7232;DHT22;3657;49.630;11.018;2023-09-07T05:31:29;17.40;92.30
7232;DHT22;3657;49.630;11.018;2023-09-07T05:33:56;17.50;92.10
7232;DHT22;3657;49.630;11.018;2023-09-07T05:36:23;17.70;92.00
7232;DHT22;3657;49.630;11.018;2023-09-07T05:38:49;17.90;91.90
7232;DHT22;3657;49.630;11.018;2023-09-07T05:41:17;18.10;91.70
7232;DHT22;3657;49.630;11.018;2023-09-07T05:43:44;18.20;91.50
7232;DHT22;3657;49.630;11.018;2023-09-07T05:46:11;18.40;91.50
7232;DHT22;3657;49.630;11.018;2023-09-07T05:48:38;18.50;91.20
7232;DHT22;3657;49.630;11.018;2023-09-07T05:51:05;18.70;91.10
7232;DHT22;3657;49.630;11.018;2023-09-07T05:53:32;18.80;91.00
7232;DHT22;3657;49.630;11.018;2023-09-07T05:55:59;19.00;90.90
7232;DHT22;3657;49.630;11.018;2023-09-07T05:58:27;19.00;90.70
7232;DHT22;3657;49.630;11.018;2023-09-07T06:00:54;19.10;90.70
7232;DHT22;3657;49.630;11.018;2023-09-07T06:03:20;19.30;90.70
7232;DHT22;3657;49.630;11.018;2023-09-07T06:05:47;19.30;90.60
7232;DHT22;3657;49.630;11.018;2023-09-07T06:08:14;19.40;90.60
7232;DHT22;3657;49.630;11.018;2023-09-07T06:10:40;19.50;90.60
7232;DHT22;3657;49.630;11.018;2023-09-07T06:13:07;19.50;90.50
7232;DHT22;3657;49.630;11.018;2023-09-07T06:15:35;19.60;90.50
7232;DHT22;3657;49.630;11.018;2023-09-07T06:18:02;19.70;90.40
7232;DHT22;3657;49.630;11.018;2023-09-07T06:20:29;19.90;90.30
7232;DHT22;3657;49.630;11.018;2023-09-07T06:22:55;20.00;90.30
7232;DHT22;3657;49.630;11.018;2023-09-07T06:25:22;20.20;90.30
7232;DHT22;3657;49.630;11.018;2023-09-07T06:27:49;20.30;90.20
7232;DHT22;3657;49.630;11.018;2023-09-07T06:30:16;20.40;90.20
7232;DHT22;3657;49.630;11.018;2023-09-07T06:32:44;20.50;90.10
7232;DHT22;3657;49.630;11.018;2023-09-07T06:35:10;20.60;90.10
7232;DHT22;3657;49.630;11.018;2023-09-07T06:37:37;20.80;90.10
7232;DHT22;3657;49.630;11.018;2023-09-07T06:40:07;20.90;90.10
7232;DHT22;3657;49.630;11.018;2023-09-07T06:42:35;21.00;89.90
7232;DHT22;3657;49.630;11.018;2023-09-07T06:45:01;21.10;90.00
7232;DHT22;3657;49.630;11.018;2023-09-07T06:47:28;21.20;90.10
7232;DHT22;3657;49.630;11.018;2023-09-07T06:49:56;21.30;89.80
7232;DHT22;3657;49.630;11.018;2023-09-07T06:52:24;21.40;89.60
7232;DHT22;3657;49.630;11.018;2023-09-07T06:54:51;21.50;90.00
7232;DHT22;3657;49.630;11.018;2023-09-07T06:57:18;21.60;90.00
7232;DHT22;3657;49.630;11.018;2023-09-07T06:59:45;21.80;89.40
7232;DHT22;3657;49.630;11.018;2023-09-07T07:02:12;21.90;89.20
7232;DHT22;3657;49.630;11.018;2023-09-07T07:04:38;22.10;89.20
7232;DHT22;3657;49.630;11.018;2023-09-07T07:07:06;22.20;88.70
7232;DHT22;3657;49.630;11.018;2023-09-07T07:09:33;22.30;89.70
7232;DHT22;3657;49.630;11.018;2023-09-07T07:12:00;22.50;89.10
7232;DHT22;3657;49.630;11.018;2023-09-07T07:14:27;22.60;90.20
7232;DHT22;3657;49.630;11.018;2023-09-07T07:16:54;22.80;89.20
7232;DHT22;3657;49.630;11.018;2023-09-07T07:19:20;22.90;89.70
7232;DHT22;3657;49.630;11.018;2023-09-07T07:21:48;23.00;89.10
7232;DHT22;3657;49.630;11.018;2023-09-07T07:24:16;23.20;90.30
7232;DHT22;3657;49.630;11.018;2023-09-07T07:26:43;23.30;90.70
7232;DHT22;3657;49.630;11.018;2023-09-07T07:29:10;23.50;89.80
7232;DHT22;3657;49.630;11.018;2023-09-07T07:31:37;23.60;89.70
7232;DHT22;3657;49.630;11.018;2023-09-07T07:34:04;23.70;90.30
7232;DHT22;3657;49.630;11.018;2023-09-07T07:36:31;23.90;89.90
7232;DHT22;3657;49.630;11.018;2023-09-07T07:38:58;24.00;90.00
7232;DHT22;3657;49.630;11.018;2023-09-07T07:41:26;24.10;90.60
7232;DHT22;3657;49.630;11.018;2023-09-07T07:43:52;24.20;90.90
7232;DHT22;3657;49.630;11.018;2023-09-07T07:46:19;24.40;90.80
7232;DHT22;3657;49.630;11.018;2023-09-07T07:48:45;24.60;91.10
7232;DHT22;3657;49.630;11.018;2023-09-07T07:51:12;24.70;90.90
7232;DHT22;3657;49.630;11.018;2023-09-07T07:53:39;24.90;90.70
7232;DHT22;3657;49.630;11.018;2023-09-07T07:56:05;25.10;90.90
7232;DHT22;3657;49.630;11.018;2023-09-07T07:58:34;25.20;91.30
7232;DHT22;3657;49.630;11.018;2023-09-07T08:01:00;25.40;91.40
7232;DHT22;3657;49.630;11.018;2023-09-07T08:03:27;25.60;91.90
7232;DHT22;3657;49.630;11.018;2023-09-07T08:05:53;25.70;91.40
7232;DHT22;3657;49.630;11.018;2023-09-07T08:08:20;25.90;91.40
7232;DHT22;3657;49.630;11.018;2023-09-07T08:10:47;25.90;91.50
7232;DHT22;3657;49.630;11.018;2023-09-07T08:13:13;25.90;91.70
7232;DHT22;3657;49.630;11.018;2023-09-07T08:15:41;25.90;91.00
7232;DHT22;3657;49.630;11.018;2023-09-07T08:18:09;26.30;91.40
7232;DHT22;3657;49.630;11.018;2023-09-07T08:20:36;26.30;90.90
7232;DHT22;3657;49.630;11.018;2023-09-07T08:23:05;26.10;88.80
7232;DHT22;3657;49.630;11.018;2023-09-07T08:25:34;26.10;89.20
7232;DHT22;3657;49.630;11.018;2023-09-07T08:28:01;26.10;87.80
7232;DHT22;3657;49.630;11.018;2023-09-07T08:30:30;26.10;87.30
7232;DHT22;3657;49.630;11.018;2023-09-07T08:32:58;26.30;87.60
7232;DHT22;3657;49.630;11.018;2023-09-07T08:35:27;26.30;86.80
7232;DHT22;3657;49.630;11.018;2023-09-07T08:37:54;26.30;88.80
7232;DHT22;3657;49.630;11.018;2023-09-07T08:40:23;26.50;88.30
7232;DHT22;3657;49.630;11.018;2023-09-07T08:42:53;26.80;88.60
7232;DHT22;3657;49.630;11.018;2023-09-07T08:45:21;26.70;86.20
7232;DHT22;3657;49.630;11.018;2023-09-07T08:47:49;26.90;88.30
7232;DHT22;3657;49.630;11.018;2023-09-07T08:50:18;27.30;87.10
7232;DHT22;3657;49.630;11.018;2023-09-07T08:52:46;27.50;84.90
7232;DHT22;3657;49.630;11.018;2023-09-07T08:55:16;27.60;89.30
7232;DHT22;3657;49.630;11.018;2023-09-07T08:57:43;27.70;85.30
7232;DHT22;3657;49.630;11.018;2023-09-07T09:00:11;27.90;87.00
7232;DHT22;3657;49.630;11.018;2023-09-07T09:02:41;27.60;83.60
7232;DHT22;3657;49.630;11.018;2023-09-07T09:05:09;27.70;85.60
7232;DHT22;3657;49.630;11.018;2023-09-07T09:07:37;27.90;83.40
7232;DHT22;3657;49.630;11.018;2023-09-07T09:10:05;27.70;82.60
7232;DHT22;3657;49.630;11.018;2023-09-07T09:12:32;27.30;82.80
7232;DHT22;3657;49.630;11.018;2023-09-07T09:14:59;27.90;84.50
7232;DHT22;3657;49.630;11.018;2023-09-07T09:17:27;28.10;84.10
7232;DHT22;3657;49.630;11.018;2023-09-07T09:19:53;28.20;83.50
7232;DHT22;3657;49.630;11.018;2023-09-07T09:22:20;28.10;83.70
7232;DHT22;3657;49.630;11.018;2023-09-07T09:24:49;28.00;83.10
7232;DHT22;3657;49.630;11.018;2023-09-07T09:27:15;28.30;87.00
7232;DHT22;3657;49.630;11.018;2023-09-07T09:29:42;28.30;80.40
7232;DHT22;3657;49.630;11.018;2023-09-07T09:32:10;28.70;82.20
7232;DHT22;3657;49.630;11.018;2023-09-07T09:34:39;28.80;82.70
7232;DHT22;3657;49.630;11.018;2023-09-07T09:37:13;28.80;81.60
7232;DHT22;3657;49.630;11.018;2023-09-07T09:39:41;29.40;83.80
7232;DHT22;3657;49.630;11.018;2023-09-07T09:42:10;29.10;80.80
7232;DHT22;3657;49.630;11.018;2023-09-07T09:44:39;29.40;80.60
7232;DHT22;3657;49.630;11.018;2023-09-07T09:47:08;29.30;79.70
7232;DHT22;3657;49.630;11.018;2023-09-07T09:49:35;29.40;83.80
7232;DHT22;3657;49.630;11.018;2023-09-07T09:52:02;29.40;78.30
7232;DHT22;3657;49.630;11.018;2023-09-07T09:54:30;29.70;79.60
7232;DHT22;3657;49.630;11.018;2023-09-07T09:57:00;29.60;77.70
7232;DHT22;3657;49.630;11.018;2023-09-07T09:59:28;29.60;78.20
7232;DHT22;3657;49.630;11.018;2023-09-07T10:01:55;29.90;86.00
7232;DHT22;3657;49.630;11.018;2023-09-07T10:04:23;30.00;78.50
7232;DHT22;3657;49.630;11.018;2023-09-07T10:06:53;30.40;79.90
7232;DHT22;3657;49.630;11.018;2023-09-07T10:09:20;30.50;86.40
7232;DHT22;3657;49.630;11.018;2023-09-07T10:11:51;30.70;83.00
7232;DHT22;3657;49.630;11.018;2023-09-07T10:14:19;30.60;80.00
7232;DHT22;3657;49.630;11.018;2023-09-07T10:16:48;30.70;82.00
7232;DHT22;3657;49.630;11.018;2023-09-07T10:19:17;30.90;79.10
7232;DHT22;3657;49.630;11.018;2023-09-07T10:21:44;30.70;79.30
7232;DHT22;3657;49.630;11.018;2023-09-07T10:24:11;30.70;78.30
7232;DHT22;3657;49.630;11.018;2023-09-07T10:26:38;30.20;80.80
7232;DHT22;3657;49.630;11.018;2023-09-07T10:29:04;30.20;78.80
7232;DHT22;3657;49.630;11.018;2023-09-07T10:31:31;30.40;75.30
7232;DHT22;3657;49.630;11.018;2023-09-07T10:34:09;30.60;75.20
7232;DHT22;3657;49.630;11.018;2023-09-07T10:36:37;30.40;75.40
7232;DHT22;3657;49.630;11.018;2023-09-07T10:39:05;30.40;76.20
7232;DHT22;3657;49.630;11.018;2023-09-07T10:41:40;30.50;77.90
7232;DHT22;3657;49.630;11.018;2023-09-07T10:44:08;30.50;83.20
7232;DHT22;3657;49.630;11.018;2023-09-07T10:46:37;30.50;76.40
7232;DHT22;3657;49.630;11.018;2023-09-07T10:49:07;30.70;77.40
7232;DHT22;3657;49.630;11.018;2023-09-07T10:51:41;30.80;76.30
7232;DHT22;3657;49.630;11.018;2023-09-07T10:54:16;30.80;75.40
7232;DHT22;3657;49.630;11.018;2023-09-07T10:56:45;31.00;82.50
7232;DHT22;3657;49.630;11.018;2023-09-07T10:59:13;30.90;74.00
7232;DHT22;3657;49.630;11.018;2023-09-07T11:01:40;31.00;84.90
7232;DHT22;3657;49.630;11.018;2023-09-07T11:04:06;31.20;76.80
7232;DHT22;3657;49.630;11.018;2023-09-07T11:06:36;31.10;82.70
7232;DHT22;3657;49.630;11.018;2023-09-07T11:09:05;31.30;85.70
7232;DHT22;3657;49.630;11.018;2023-09-07T11:11:34;31.10;78.10
7232;DHT22;3657;49.630;11.018;2023-09-07T11:14:02;31.30;83.50
7232;DHT22;3657;49.630;11.018;2023-09-07T11:16:29;31.40;76.30
7232;DHT22;3657;49.630;11.018;2023-09-07T11:18:56;31.20;82.10
7232;DHT22;3657;49.630;11.018;2023-09-07T11:21:23;31.30;76.30
7232;DHT22;3657;49.630;11.018;2023-09-07T11:23:51;31.30;81.10
7232;DHT22;3657;49.630;11.018;2023-09-07T11:26:20;31.70;84.60
7232;DHT22;3657;49.630;11.018;2023-09-07T11:28:48;31.80;78.90
7232;DHT22;3657;49.630;11.018;2023-09-07T11:31:18;31.60;79.20
7232;DHT22;3657;49.630;11.018;2023-09-07T11:33:44;31.80;85.60
7232;DHT22;3657;49.630;11.018;2023-09-07T11:36:10;31.70;83.40
7232;DHT22;3657;49.630;11.018;2023-09-07T11:38:38;31.60;74.90
7232;DHT22;3657;49.630;11.018;2023-09-07T11:41:04;31.50;73.40
7232;DHT22;3657;49.630;11.018;2023-09-07T11:43:32;31.40;77.00
7232;DHT22;3657;49.630;11.018;2023-09-07T11:45:59;31.20;75.20
7232;DHT22;3657;49.630;11.018;2023-09-07T11:48:29;31.00;78.50
7232;DHT22;3657;49.630;11.018;2023-09-07T11:50:57;31.10;81.60
7232;DHT22;3657;49.630;11.018;2023-09-07T11:53:24;31.30;86.40
7232;DHT22;3657;49.630;11.018;2023-09-07T11:55:51;31.60;78.70
7232;DHT22;3657;49.630;11.018;2023-09-07T11:58:17;31.00;75.00
7232;DHT22;3657;49.630;11.018;2023-09-07T12:00:46;30.80;83.10
7232;DHT22;3657;49.630;11.018;2023-09-07T12:03:13;30.70;76.60
7232;DHT22;3657;49.630;11.018;2023-09-07T12:05:39;30.80;76.00
7232;DHT22;3657;49.630;11.018;2023-09-07T12:08:08;30.70;86.80
7232;DHT22;3657;49.630;11.018;2023-09-07T12:10:34;31.10;84.70
7232;DHT22;3657;49.630;11.018;2023-09-07T12:13:01;31.10;75.50
7232;DHT22;3657;49.630;11.018;2023-09-07T12:15:28;31.10;80.80
7232;DHT22;3657;49.630;11.018;2023-09-07T12:17:56;31.20;78.10
7232;DHT22;3657;49.630;11.018;2023-09-07T12:20:23;30.80;75.10
7232;DHT22;3657;49.630;11.018;2023-09-07T12:22:49;30.30;74.00
7232;DHT22;3657;49.630;11.018;2023-09-07T12:25:17;30.40;76.60
7232;DHT22;3657;49.630;11.018;2023-09-07T12:27:43;30.20;83.50
7232;DHT22;3657;49.630;11.018;2023-09-07T12:30:12;30.30;72.40
7232;DHT22;3657;49.630;11.018;2023-09-07T12:32:39;30.30;85.20
7232;DHT22;3657;49.630;11.018;2023-09-07T12:35:08;30.70;78.60
7232;DHT22;3657;49.630;11.018;2023-09-07T12:37:35;30.60;75.40
7232;DHT22;3657;49.630;11.018;2023-09-07T12:40:02;30.80;80.10
7232;DHT22;3657;49.630;11.018;2023-09-07T12:42:37;30.50;72.40
7232;DHT22;3657;49.630;11.018;2023-09-07T12:45:06;30.60;84.70
7232;DHT22;3657;49.630;11.018;2023-09-07T12:47:32;30.70;79.40
7232;DHT22;3657;49.630;11.018;2023-09-07T12:49:59;30.90;77.80
7232;DHT22;3657;49.630;11.018;2023-09-07T12:52:27;30.90;73.80
7232;DHT22;3657;49.630;11.018;2023-09-07T12:54:53;30.90;75.20
7232;DHT22;3657;49.630;11.018;2023-09-07T12:57:20;31.00;70.90
7232;DHT22;3657;49.630;11.018;2023-09-07T12:59:47;30.80;70.00
7232;DHT22;3657;49.630;11.018;2023-09-07T13:02:14;30.90;82.70
7232;DHT22;3657;49.630;11.018;2023-09-07T13:04:41;31.00;80.90
7232;DHT22;3657;49.630;11.018;2023-09-07T13:07:08;30.80;71.20
7232;DHT22;3657;49.630;11.018;2023-09-07T13:09:36;30.50;68.60
7232;DHT22;3657;49.630;11.018;2023-09-07T13:12:03;30.50;70.30
7232;DHT22;3657;49.630;11.018;2023-09-07T13:14:30;30.70;74.10
7232;DHT22;3657;49.630;11.018;2023-09-07T13:16:56;30.80;70.80
7232;DHT22;3657;49.630;11.018;2023-09-07T13:19:23;31.00;69.70
7232;DHT22;3657;49.630;11.018;2023-09-07T13:21:50;31.00;65.70
7232;DHT22;3657;49.630;11.018;2023-09-07T13:24:16;30.90;68.30
7232;DHT22;3657;49.630;11.018;2023-09-07T13:26:47;31.00;69.00
7232;DHT22;3657;49.630;11.018;2023-09-07T13:29:14;31.00;76.40
7232;DHT22;3657;49.630;11.018;2023-09-07T13:31:41;30.80;71.70
7232;DHT22;3657;49.630;11.018;2023-09-07T13:34:07;30.80;71.20
7232;DHT22;3657;49.630;11.018;2023-09-07T13:36:34;31.00;74.90
7232;DHT22;3657;49.630;11.018;2023-09-07T13:39:01;31.10;73.90
7232;DHT22;3657;49.630;11.018;2023-09-07T13:41:27;31.00;71.60
7232;DHT22;3657;49.630;11.018;2023-09-07T13:43:55;31.10;68.80
7232;DHT22;3657;49.630;11.018;2023-09-07T13:46:24;31.10;68.60
7232;DHT22;3657;49.630;11.018;2023-09-07T13:48:51;31.10;67.00
7232;DHT22;3657;49.630;11.018;2023-09-07T13:51:17;30.60;64.70
7232;DHT22;3657;49.630;11.018;2023-09-07T13:53:44;30.60;68.70
7232;DHT22;3657;49.630;11.018;2023-09-07T13:56:11;30.60;66.10
7232;DHT22;3657;49.630;11.018;2023-09-07T13:58:37;30.20;63.80
7232;DHT22;3657;49.630;11.018;2023-09-07T14:01:06;30.20;68.30
7232;DHT22;3657;49.630;11.018;2023-09-07T14:03:32;30.10;66.90
7232;DHT22;3657;49.630;11.018;2023-09-07T14:05:59;30.30;68.60
7232;DHT22;3657;49.630;11.018;2023-09-07T14:08:26;30.50;67.50
7232;DHT22;3657;49.630;11.018;2023-09-07T14:10:52;30.50;67.30
7232;DHT22;3657;49.630;11.018;2023-09-07T14:13:19;30.60;69.80
7232;DHT22;3657;49.630;11.018;2023-09-07T14:15:46;30.80;74.30
7232;DHT22;3657;49.630;11.018;2023-09-07T14:18:14;31.00;68.90
7232;DHT22;3657;49.630;11.018;2023-09-07T14:20:40;31.00;71.90
7232;DHT22;3657;49.630;11.018;2023-09-07T14:23:07;30.40;66.70
7232;DHT22;3657;49.630;11.018;2023-09-07T14:25:34;30.40;66.50
7232;DHT22;3657;49.630;11.018;2023-09-07T14:28:03;30.20;66.90
7232;DHT22;3657;49.630;11.018;2023-09-07T14:30:30;30.10;65.30
7232;DHT22;3657;49.630;11.018;2023-09-07T14:32:57;30.00;67.70
7232;DHT22;3657;49.630;11.018;2023-09-07T14:35:25;29.90;66.80
7232;DHT22;3657;49.630;11.018;2023-09-07T14:37:51;29.80;67.30
7232;DHT22;3657;49.630;11.018;2023-09-07T14:40:19;29.60;67.80
7232;DHT22;3657;49.630;11.018;2023-09-07T14:42:47;29.70;68.70
7232;DHT22;3657;49.630;11.018;2023-09-07T14:45:14;29.70;67.90
7232;DHT22;3657;49.630;11.018;2023-09-07T14:47:40;29.70;67.30
7232;DHT22;3657;49.630;11.018;2023-09-07T14:50:08;29.50;65.60
7232;DHT22;3657;49.630;11.018;2023-09-07T14:52:36;29.50;67.80
7232;DHT22;3657;49.630;11.018;2023-09-07T14:55:07;29.60;66.30
7232;DHT22;3657;49.630;11.018;2023-09-07T14:57:34;29.70;65.10
7232;DHT22;3657;49.630;11.018;2023-09-07T15:00:01;29.60;65.60
7232;DHT22;3657;49.630;11.018;2023-09-07T15:02:28;29.60;70.30
7232;DHT22;3657;49.630;11.018;2023-09-07T15:04:55;29.70;70.70
7232;DHT22;3657;49.630;11.018;2023-09-07T15:07:22;29.80;71.00
7232;DHT22;3657;49.630;11.018;2023-09-07T15:09:50;29.80;66.40
7232;DHT22;3657;49.630;11.018;2023-09-07T15:12:16;29.80;65.50
7232;DHT22;3657;49.630;11.018;2023-09-07T15:14:43;29.60;67.90
7232;DHT22;3657;49.630;11.018;2023-09-07T15:17:11;29.60;67.60
7232;DHT22;3657;49.630;11.018;2023-09-07T15:19:39;29.50;66.60
7232;DHT22;3657;49.630;11.018;2023-09-07T15:22:06;29.50;68.90
7232;DHT22;3657;49.630;11.018;2023-09-07T15:24:33;29.50;67.10
7232;DHT22;3657;49.630;11.018;2023-09-07T15:27:07;29.50;68.30
7232;DHT22;3657;49.630;11.018;2023-09-07T15:29:33;29.50;70.40
7232;DHT22;3657;49.630;11.018;2023-09-07T15:32:00;29.50;68.90
7232;DHT22;3657;49.630;11.018;2023-09-07T15:34:27;29.50;68.40
7232;DHT22;3657;49.630;11.018;2023-09-07T15:36:53;29.40;67.30
7232;DHT22;3657;49.630;11.018;2023-09-07T15:39:20;29.20;67.50
7232;DHT22;3657;49.630;11.018;2023-09-07T15:41:47;29.20;68.60
7232;DHT22;3657;49.630;11.018;2023-09-07T15:44:15;29.30;69.70
7232;DHT22;3657;49.630;11.018;2023-09-07T15:46:41;29.20;69.70